Terminal Aerodrome Forecast
Issued by NWS Miami, FL

Home | Current Version | Previous Version | Text Only | Print | Product List | Glossary On
Versions: 1 2 3 4 5 6 7 8 9 10 11 12 13 14 15 16 17 18 19 20 21 22 23 24 25 26
000
FTUS42 KMFL 312038 AAA
TAFPBI
TAF AMD
KPBI 312038Z 3121/0118 17013G21KT P6SM VCSH SCT020 BKN060 BKN120
      TEMPO 3121/3124 BKN025
     FM010000 17008KT P6SM VCSH SCT020 BKN100 OVC250=

USA.gov is the U.S. government's official web portal to all federal, state and local government web resources and services.